Time;durP1;ratioP1;P1;durP2;ratioP2;P2;SDS_P1;SDS_P2;PMS_P1;PMS_P2;Temp;Humidity;BMP_temperature;BMP_pressure;BME280_temperature;BME280_humidity;BME280_pressure;Samples;Min_cycle;Max_cycle;Signal;HPM_P1;HPM_P2
2021/10/12 00:00:39;;;;;;;6.47;1.00;;;;;;;;;;5070967;28;20016;-51
2021/10/12 00:03:05;;;;;;;3.95;1.17;;;;;;;;;;5066006;28;20031;-51
2021/10/12 00:05:31;;;;;;;5.35;1.25;;;;;;;;;;5071579;28;20032;-51
2021/10/12 00:07:57;;;;;;;5.40;0.95;;;;;;;;;;5062729;28;20028;-51
2021/10/12 00:10:23;;;;;;;4.45;1.38;;;;;;;;;;5069499;28;20067;-51
2021/10/12 00:12:49;;;;;;;2.72;0.85;;;;;;;;;;5071118;28;20445;-52
2021/10/12 00:15:15;;;;;;;4.28;1.67;;;;;;;;;;5071422;28;20051;-50
2021/10/12 00:17:41;;;;;;;2.90;1.30;;;;;;;;;;5064328;28;20047;-51
2021/10/12 00:20:08;;;;;;;5.60;1.00;;;;;;;;;;5071186;28;20374;-51
2021/10/12 00:22:35;;;;;;;2.53;0.75;;;;;;;;;;5065803;28;20025;-52
2021/10/12 00:25:01;;;;;;;1.92;1.00;;;;;;;;;;5071162;28;20606;-51
2021/10/12 00:27:27;;;;;;;3.40;1.15;;;;;;;;;;5066982;28;20033;-51
2021/10/12 00:29:53;;;;;;;0.98;0.70;;;;;;;;;;5069755;28;20021;-52
2021/10/12 00:32:19;;;;;;;2.90;1.15;;;;;;;;;;5063860;28;20040;-53
2021/10/12 00:34:45;;;;;;;6.38;1.13;;;;;;;;;;5074885;28;20159;-51
2021/10/12 00:37:12;;;;;;;4.05;0.82;;;;;;;;;;5071144;28;20033;-53
2021/10/12 00:39:39;;;;;;;2.70;0.90;;;;;;;;;;5066127;28;20366;-51
2021/10/12 00:42:05;;;;;;;4.28;1.13;;;;;;;;;;5068813;28;20020;-50
2021/10/12 00:44:31;;;;;;;5.25;1.05;;;;;;;;;;5074817;28;20232;-51
2021/10/12 00:46:57;;;;;;;1.80;0.90;;;;;;;;;;5066400;28;20023;-50
2021/10/12 00:49:23;;;;;;;2.58;1.05;;;;;;;;;;5073976;28;20032;-51
2021/10/12 00:51:49;;;;;;;3.05;1.00;;;;;;;;;;5072836;28;20513;-50
2021/10/12 00:54:15;;;;;;;2.50;0.73;;;;;;;;;;5072223;28;20036;-52
2021/10/12 00:56:41;;;;;;;3.75;1.20;;;;;;;;;;5072515;28;20059;-53
2021/10/12 00:59:09;;;;;;;6.70;0.82;;;;;;;;;;5074425;28;20059;-53
2021/10/12 01:01:36;;;;;;;9.70;1.10;;;;;;;;;;5072046;28;20060;-56
2021/10/12 01:04:02;;;;;;;3.65;1.10;;;;;;;;;;5074123;28;20036;-52
2021/10/12 01:06:28;;;;;;;6.57;1.30;;;;;;;;;;5072835;28;20024;-50
2021/10/12 01:08:54;;;;;;;2.08;0.95;;;;;;;;;;5069706;28;20075;-51
2021/10/12 01:11:20;;;;;;;6.10;1.27;;;;;;;;;;5069944;28;20028;-52
2021/10/12 01:13:46;;;;;;;5.68;1.17;;;;;;;;;;5070356;28;20642;-50
2021/10/12 01:16:14;;;;;;;5.22;1.30;;;;;;;;;;5068742;28;20099;-52
2021/10/12 01:18:40;;;;;;;2.67;0.93;;;;;;;;;;5066605;28;20132;-51
2021/10/12 01:21:06;;;;;;;2.55;0.70;;;;;;;;;;5072832;28;20677;-51
2021/10/12 01:23:32;;;;;;;1.60;0.65;;;;;;;;;;5073881;28;20032;-55
2021/10/12 01:25:58;;;;;;;4.18;0.90;;;;;;;;;;5070686;28;20651;-50
2021/10/12 01:28:24;;;;;;;6.90;1.42;;;;;;;;;;5067618;28;20055;-51
2021/10/12 01:30:51;;;;;;;9.50;1.10;;;;;;;;;;5069993;28;20040;-51
2021/10/12 01:33:17;;;;;;;3.38;0.90;;;;;;;;;;5065430;28;20484;-50
2021/10/12 01:35:43;;;;;;;1.75;0.90;;;;;;;;;;5072807;28;20374;-51
2021/10/12 01:38:09;;;;;;;2.55;1.20;;;;;;;;;;5067235;28;20089;-50
2021/10/12 01:40:35;;;;;;;2.38;0.95;;;;;;;;;;5073435;28;20025;-52
2021/10/12 01:43:01;;;;;;;5.68;1.55;;;;;;;;;;5067278;28;20435;-51
2021/10/12 01:45:27;;;;;;;1.05;0.82;;;;;;;;;;5073439;28;20036;-52
2021/10/12 01:47:53;;;;;;;2.60;0.95;;;;;;;;;;5061970;28;20460;-51
2021/10/12 01:50:20;;;;;;;4.32;1.33;;;;;;;;;;5067781;28;20477;-52
2021/10/12 01:52:46;;;;;;;4.15;0.95;;;;;;;;;;5069767;28;20054;-54
2021/10/12 01:55:12;;;;;;;4.85;0.80;;;;;;;;;;5069748;28;20103;-51
2021/10/12 01:57:38;;;;;;;1.63;0.80;;;;;;;;;;5067490;28;20107;-51
2021/10/12 02:00:06;;;;;;;2.70;0.70;;;;;;;;;;5070349;28;20119;-53
2021/10/12 02:02:32;;;;;;;4.50;1.00;;;;;;;;;;5071860;28;20105;-50
2021/10/12 02:04:58;;;;;;;3.20;0.90;;;;;;;;;;5071434;28;20074;-54
2021/10/12 02:07:24;;;;;;;2.42;0.70;;;;;;;;;;5066249;28;20028;-51
2021/10/12 02:09:49;;;;;;;2.25;1.15;;;;;;;;;;5057433;28;20108;-52
2021/10/12 02:12:16;;;;;;;2.05;0.90;;;;;;;;;;5066237;28;20533;-52
2021/10/12 02:14:42;;;;;;;6.15;0.95;;;;;;;;;;5060069;28;20112;-51
2021/10/12 02:17:08;;;;;;;4.43;1.20;;;;;;;;;;5072701;28;20025;-51
2021/10/12 02:19:34;;;;;;;2.10;0.93;;;;;;;;;;5072861;28;20098;-51
2021/10/12 02:22:00;;;;;;;3.85;1.17;;;;;;;;;;5069971;28;20051;-53
2021/10/12 02:24:26;;;;;;;3.00;1.25;;;;;;;;;;5069053;28;20021;-51
2021/10/12 02:26:52;;;;;;;2.15;0.95;;;;;;;;;;5066327;28;20063;-52
2021/10/12 02:29:18;;;;;;;4.57;1.10;;;;;;;;;;5065946;28;20029;-55
2021/10/12 02:31:44;;;;;;;4.00;1.75;;;;;;;;;;5072340;28;20029;-52
2021/10/12 02:34:10;;;;;;;3.97;1.20;;;;;;;;;;5072375;28;20032;-51
2021/10/12 02:36:36;;;;;;;5.03;1.45;;;;;;;;;;5059692;28;20040;-53
2021/10/12 02:39:02;;;;;;;3.03;1.13;;;;;;;;;;5064941;28;20436;-51
2021/10/12 02:41:28;;;;;;;8.18;1.77;;;;;;;;;;5070169;28;20028;-52
2021/10/12 02:43:54;;;;;;;3.90;1.33;;;;;;;;;;5064598;28;20134;-53
2021/10/12 02:46:20;;;;;;;5.22;1.10;;;;;;;;;;5065785;28;20029;-51
2021/10/12 02:48:48;;;;;;;4.10;1.45;;;;;;;;;;5067498;28;20020;-52
2021/10/12 02:51:14;;;;;;;9.25;1.40;;;;;;;;;;5070606;28;20036;-52
2021/10/12 02:53:40;;;;;;;2.72;1.30;;;;;;;;;;5062196;28;20025;-52
2021/10/12 02:56:06;;;;;;;7.35;1.60;;;;;;;;;;5075969;28;20035;-52
2021/10/12 02:58:32;;;;;;;2.80;1.10;;;;;;;;;;5071256;28;20024;-54
2021/10/12 03:00:58;;;;;;;1.85;1.10;;;;;;;;;;5063498;28;20569;-51
2021/10/12 03:03:24;;;;;;;5.13;1.35;;;;;;;;;;5061025;28;20025;-52
2021/10/12 03:05:50;;;;;;;4.07;1.10;;;;;;;;;;5072039;28;20020;-51
2021/10/12 03:08:16;;;;;;;5.18;1.27;;;;;;;;;;5067066;28;20033;-51
2021/10/12 03:10:42;;;;;;;3.17;1.08;;;;;;;;;;5066361;28;20170;-52
2021/10/12 03:13:08;;;;;;;4.28;1.15;;;;;;;;;;5072062;28;20142;-51
2021/10/12 03:15:34;;;;;;;1.90;1.13;;;;;;;;;;5068365;28;20033;-51
2021/10/12 03:18:00;;;;;;;4.30;1.35;;;;;;;;;;5068836;28;20048;-51
2021/10/12 03:20:26;;;;;;;3.05;1.50;;;;;;;;;;5071586;28;20040;-51
2021/10/12 03:22:52;;;;;;;7.60;1.35;;;;;;;;;;5068553;28;20117;-51
2021/10/12 03:25:18;;;;;;;3.08;1.40;;;;;;;;;;5064129;28;20052;-51
2021/10/12 03:27:44;;;;;;;2.58;1.30;;;;;;;;;;5071570;28;20024;-51
2021/10/12 03:30:10;;;;;;;4.10;1.27;;;;;;;;;;5072091;28;20020;-51
2021/10/12 03:32:36;;;;;;;4.68;1.70;;;;;;;;;;5070964;28;20027;-51
2021/10/12 03:35:03;;;;;;;6.55;1.63;;;;;;;;;;5072142;28;20021;-52
2021/10/12 03:37:29;;;;;;;7.10;1.67;;;;;;;;;;5061847;28;20103;-51
2021/10/12 03:39:55;;;;;;;5.53;1.42;;;;;;;;;;5067449;28;20109;-51
2021/10/12 03:42:20;;;;;;;4.13;1.23;;;;;;;;;;5068847;28;20354;-52
2021/10/12 03:44:47;;;;;;;4.72;1.73;;;;;;;;;;5069294;28;20056;-51
2021/10/12 03:47:13;;;;;;;6.38;1.48;;;;;;;;;;5065413;28;20520;-55
2021/10/12 03:49:39;;;;;;;3.97;1.40;;;;;;;;;;5064212;28;20043;-51
2021/10/12 03:52:05;;;;;;;3.20;1.52;;;;;;;;;;5066924;28;20033;-51
2021/10/12 03:54:31;;;;;;;4.38;1.75;;;;;;;;;;5070715;28;20024;-51
2021/10/12 03:56:57;;;;;;;5.55;1.77;;;;;;;;;;5062108;28;20358;-51
2021/10/12 03:59:23;;;;;;;4.45;2.15;;;;;;;;;;5066808;28;20043;-53
2021/10/12 04:01:49;;;;;;;7.22;1.50;;;;;;;;;;5063028;28;20108;-52
2021/10/12 04:04:15;;;;;;;5.32;1.75;;;;;;;;;;5061009;28;20075;-52
2021/10/12 04:06:41;;;;;;;4.70;1.90;;;;;;;;;;5064611;28;20136;-53
2021/10/12 04:09:07;;;;;;;4.75;2.90;;;;;;;;;;5066241;28;20040;-52
2021/10/12 04:11:33;;;;;;;5.35;2.25;;;;;;;;;;5069173;28;20029;-53
2021/10/12 04:13:59;;;;;;;3.92;1.88;;;;;;;;;;5070437;28;20032;-52
2021/10/12 04:16:25;;;;;;;6.53;2.70;;;;;;;;;;5068473;28;20051;-52
2021/10/12 04:18:51;;;;;;;8.57;2.17;;;;;;;;;;5070610;28;20036;-54
2021/10/12 04:21:17;;;;;;;5.50;1.83;;;;;;;;;;5070581;28;20028;-51
2021/10/12 04:23:43;;;;;;;10.18;2.85;;;;;;;;;;5067360;28;20123;-51
2021/10/12 04:26:11;;;;;;;17.23;2.58;;;;;;;;;;5071309;28;20380;-51
2021/10/12 04:28:37;;;;;;;8.43;2.90;;;;;;;;;;5068831;28;20032;-51
2021/10/12 04:31:03;;;;;;;4.10;2.40;;;;;;;;;;5070519;28;20222;-52
2021/10/12 04:33:29;;;;;;;9.82;2.58;;;;;;;;;;5073251;28;20141;-52
2021/10/12 04:35:55;;;;;;;6.30;3.30;;;;;;;;;;5071572;28;20128;-51
2021/10/12 04:38:21;;;;;;;9.27;2.67;;;;;;;;;;5067301;28;20037;-52
2021/10/12 04:40:47;;;;;;;7.10;2.50;;;;;;;;;;5072628;28;20016;-53
2021/10/12 04:43:13;;;;;;;5.20;3.05;;;;;;;;;;5069441;28;20212;-52
2021/10/12 04:45:39;;;;;;;6.47;2.40;;;;;;;;;;5072110;28;20043;-51
2021/10/12 04:48:05;;;;;;;12.02;2.95;;;;;;;;;;5070016;28;20079;-50
2021/10/12 04:50:31;;;;;;;9.00;2.58;;;;;;;;;;5065990;28;20060;-53
2021/10/12 04:52:57;;;;;;;2.83;2.05;;;;;;;;;;5069099;28;20046;-51
2021/10/12 04:55:23;;;;;;;8.15;2.08;;;;;;;;;;5070094;28;20116;-51
2021/10/12 04:57:49;;;;;;;2.45;1.55;;;;;;;;;;5064845;28;20405;-52
2021/10/12 05:00:15;;;;;;;2.72;1.73;;;;;;;;;;5067146;28;20716;-51
2021/10/12 05:02:42;;;;;;;4.53;1.50;;;;;;;;;;5068907;28;20039;-50
2021/10/12 05:05:08;;;;;;;4.50;1.70;;;;;;;;;;5074169;28;20535;-55
2021/10/12 05:07:34;;;;;;;4.03;1.70;;;;;;;;;;5066015;28;20472;-52
2021/10/12 05:10:00;;;;;;;5.22;1.70;;;;;;;;;;5067000;28;20040;-52
2021/10/12 05:12:26;;;;;;;8.32;1.50;;;;;;;;;;5074225;28;20031;-53
2021/10/12 05:14:52;;;;;;;5.45;1.98;;;;;;;;;;5074011;28;20111;-51
2021/10/12 05:17:33;;;;;;;3.47;1.88;;;;;;;;;;5067804;28;20033;-51
2021/10/12 05:19:59;;;;;;;3.67;1.30;;;;;;;;;;5080518;28;20136;-52
2021/10/12 05:22:25;;;;;;;2.90;1.50;;;;;;;;;;5069420;28;20100;-52
2021/10/12 05:24:51;;;;;;;2.78;1.20;;;;;;;;;;5063948;28;20029;-51
2021/10/12 05:27:17;;;;;;;2.03;1.20;;;;;;;;;;5068361;28;20028;-51
2021/10/12 05:29:44;;;;;;;3.08;1.38;;;;;;;;;;5064930;28;20024;-51
2021/10/12 05:32:10;;;;;;;3.72;1.52;;;;;;;;;;5073350;28;20522;-53
2021/10/12 05:34:36;;;;;;;3.40;1.35;;;;;;;;;;5071198;28;20063;-51
2021/10/12 05:37:02;;;;;;;3.75;1.50;;;;;;;;;;5065241;28;20028;-51
2021/10/12 05:39:28;;;;;;;4.57;1.83;;;;;;;;;;5069335;28;20115;-55
2021/10/12 05:41:54;;;;;;;5.13;1.45;;;;;;;;;;5071996;28;20027;-51
2021/10/12 05:44:20;;;;;;;2.50;1.70;;;;;;;;;;5073921;28;20031;-52
2021/10/12 05:46:46;;;;;;;3.90;1.92;;;;;;;;;;5073391;28;20020;-54
2021/10/12 05:49:12;;;;;;;2.92;1.52;;;;;;;;;;5073028;28;20032;-55
2021/10/12 05:51:40;;;;;;;4.15;1.88;;;;;;;;;;5073214;28;20025;-53
2021/10/12 05:54:07;;;;;;;2.97;1.60;;;;;;;;;;5072782;28;20107;-53
2021/10/12 05:59:34;;;;;;;6.15;2.25;;;;;;;;;;5010802;28;20042;-51
2021/10/12 06:02:01;;;;;;;4.22;2.20;;;;;;;;;;5051336;28;20037;-52
2021/10/12 06:04:27;;;;;;;3.63;2.05;;;;;;;;;;5072931;28;20028;-55
2021/10/12 06:06:56;;;;;;;11.57;2.72;;;;;;;;;;5072051;28;20021;-51
2021/10/12 06:09:22;;;;;;;7.53;2.33;;;;;;;;;;5069656;28;20056;-51
2021/10/12 06:11:48;;;;;;;3.72;1.90;;;;;;;;;;5072236;28;20082;-51
2021/10/12 06:14:15;;;;;;;6.80;1.88;;;;;;;;;;5073213;28;20032;-52
2021/10/12 06:16:41;;;;;;;3.53;2.00;;;;;;;;;;5070358;28;20028;-52
2021/10/12 06:19:07;;;;;;;7.07;1.85;;;;;;;;;;5072008;28;20118;-52
2021/10/12 06:21:33;;;;;;;5.32;2.30;;;;;;;;;;5071537;28;20032;-52
2021/10/12 06:23:59;;;;;;;6.93;2.10;;;;;;;;;;5072217;28;20056;-55
2021/10/12 06:26:25;;;;;;;4.30;1.98;;;;;;;;;;5064782;28;20361;-52
2021/10/12 06:28:51;;;;;;;4.20;2.53;;;;;;;;;;5071607;28;20056;-54
2021/10/12 06:31:17;;;;;;;4.10;1.92;;;;;;;;;;5072264;28;20466;-52
2021/10/12 06:33:42;;;;;;;6.28;2.40;;;;;;;;;;5072244;28;20033;-55
2021/10/12 06:36:08;;;;;;;6.57;2.10;;;;;;;;;;5069651;28;20066;-55
2021/10/12 06:38:34;;;;;;;5.00;2.50;;;;;;;;;;5068045;28;20108;-52
2021/10/12 06:41:00;;;;;;;3.10;1.95;;;;;;;;;;5071447;28;20028;-53
2021/10/12 06:43:26;;;;;;;4.80;2.13;;;;;;;;;;5067211;28;20511;-55
2021/10/12 06:45:52;;;;;;;5.93;2.00;;;;;;;;;;5072489;28;20029;-55
2021/10/12 06:48:18;;;;;;;7.65;1.92;;;;;;;;;;5071788;28;20031;-52
2021/10/12 06:50:44;;;;;;;5.50;1.90;;;;;;;;;;5070942;28;20037;-51
2021/10/12 06:53:10;;;;;;;4.75;1.85;;;;;;;;;;5067744;28;20032;-55
2021/10/12 06:55:36;;;;;;;5.88;1.40;;;;;;;;;;5065653;28;20028;-54
2021/10/12 06:58:02;;;;;;;2.03;1.33;;;;;;;;;;5069200;28;20028;-53
2021/10/12 07:00:28;;;;;;;3.47;2.03;;;;;;;;;;5067657;28;20025;-52
2021/10/12 07:02:54;;;;;;;3.55;1.40;;;;;;;;;;5071557;28;20027;-52
2021/10/12 07:05:20;;;;;;;5.15;1.20;;;;;;;;;;5062071;28;20029;-52
2021/10/12 07:07:46;;;;;;;5.00;2.63;;;;;;;;;;5065738;28;20098;-51
2021/10/12 07:10:14;;;;;;;3.33;1.40;;;;;;;;;;5068321;28;20076;-52
2021/10/12 07:12:40;;;;;;;3.78;1.50;;;;;;;;;;5071125;28;20028;-53
2021/10/12 07:15:06;;;;;;;3.13;1.25;;;;;;;;;;5072124;28;20107;-54
2021/10/12 07:17:33;;;;;;;1.77;0.90;;;;;;;;;;5061535;28;20061;-51
2021/10/12 07:19:59;;;;;;;6.68;1.60;;;;;;;;;;5068296;28;20114;-52
2021/10/12 07:22:25;;;;;;;1.77;1.00;;;;;;;;;;5063140;28;20087;-53
2021/10/12 07:24:52;;;;;;;3.20;1.15;;;;;;;;;;5069733;28;20070;-51
2021/10/12 07:27:18;;;;;;;3.50;1.10;;;;;;;;;;5063215;28;20035;-51
2021/10/12 07:29:50;;;;;;;2.13;1.30;;;;;;;;;;5071078;28;20482;-53
2021/10/12 07:32:17;;;;;;;0.95;0.85;;;;;;;;;;5063066;28;20036;-55
2021/10/12 07:34:43;;;;;;;2.15;1.00;;;;;;;;;;5065921;28;20028;-51
2021/10/12 07:37:09;;;;;;;5.15;1.02;;;;;;;;;;5068852;28;20092;-51
2021/10/12 07:39:35;;;;;;;3.03;1.27;;;;;;;;;;5065555;28;20120;-51
2021/10/12 07:42:05;;;;;;;2.20;0.93;;;;;;;;;;5071249;28;20020;-53
2021/10/12 07:44:31;;;;;;;2.83;0.82;;;;;;;;;;5079776;28;20111;-52
2021/10/12 07:46:57;;;;;;;2.83;1.10;;;;;;;;;;5075970;28;20051;-55
2021/10/12 07:49:23;;;;;;;1.13;0.90;;;;;;;;;;5077246;28;20433;-51
2021/10/12 07:51:50;;;;;;;2.58;0.55;;;;;;;;;;5066675;28;20032;-53
2021/10/12 07:54:24;;;;;;;2.63;0.80;;;;;;;;;;5074987;28;20029;-55
2021/10/12 07:56:50;;;;;;;1.13;0.70;;;;;;;;;;5074396;28;20028;-53
2021/10/12 07:59:18;;;;;;;1.05;0.65;;;;;;;;;;5080424;28;20410;-52
2021/10/12 08:01:44;;;;;;;0.68;0.60;;;;;;;;;;5071636;28;20089;-52
2021/10/12 08:04:10;;;;;;;1.63;0.80;;;;;;;;;;5073295;28;20020;-53
2021/10/12 08:06:36;;;;;;;1.92;0.70;;;;;;;;;;5076652;28;20471;-52
2021/10/12 08:09:02;;;;;;;1.10;0.60;;;;;;;;;;5070275;28;20044;-55
2021/10/12 08:11:28;;;;;;;4.03;0.50;;;;;;;;;;5075127;28;20119;-52
2021/10/12 08:13:57;;;;;;;1.85;0.82;;;;;;;;;;5078080;28;20028;-52
2021/10/12 08:16:30;;;;;;;1.80;0.50;;;;;;;;;;5071576;28;20033;-52
2021/10/12 08:18:56;;;;;;;0.93;0.60;;;;;;;;;;5077366;28;20468;-52
2021/10/12 08:21:22;;;;;;;0.55;0.47;;;;;;;;;;5072111;28;20033;-51
2021/10/12 08:23:48;;;;;;;0.50;0.45;;;;;;;;;;5076925;28;20417;-51
2021/10/12 08:26:15;;;;;;;5.95;0.73;;;;;;;;;;5070016;28;20028;-51
2021/10/12 08:28:41;;;;;;;3.45;0.50;;;;;;;;;;5075726;28;20484;-52
2021/10/12 08:31:08;;;;;;;2.70;0.63;;;;;;;;;;5064896;28;20378;-51
2021/10/12 08:33:34;;;;;;;0.95;0.65;;;;;;;;;;5072722;28;20040;-53
2021/10/12 08:36:00;;;;;;;0.90;0.60;;;;;;;;;;5078041;28;20090;-52
2021/10/12 08:38:26;;;;;;;1.30;0.93;;;;;;;;;;5065929;28;20028;-51
2021/10/12 08:40:52;;;;;;;1.13;0.45;;;;;;;;;;5069652;28;20457;-51
2021/10/12 08:43:18;;;;;;;0.90;0.50;;;;;;;;;;5074915;28;20035;-53
2021/10/12 08:45:44;;;;;;;0.40;0.40;;;;;;;;;;5077688;28;20013;-51
2021/10/12 08:48:12;;;;;;;1.17;0.60;;;;;;;;;;5071164;28;20040;-54
2021/10/12 08:50:37;;;;;;;3.22;0.90;;;;;;;;;;5068771;28;20029;-51
2021/10/12 08:53:04;;;;;;;3.70;0.70;;;;;;;;;;5072780;28;20028;-51
2021/10/12 08:55:30;;;;;;;1.13;0.80;;;;;;;;;;5074516;28;20025;-53
2021/10/12 08:57:56;;;;;;;1.00;0.50;;;;;;;;;;5074397;28;20036;-51
2021/10/12 09:00:28;;;;;;;1.75;0.73;;;;;;;;;;5072826;28;20044;-52
2021/10/12 09:02:57;;;;;;;2.58;0.60;;;;;;;;;;5071582;28;20032;-52
2021/10/12 09:05:25;;;;;;;1.02;0.70;;;;;;;;;;5073008;28;20033;-51
2021/10/12 09:07:51;;;;;;;2.17;0.30;;;;;;;;;;5073086;28;20031;-53
2021/10/12 09:10:21;;;;;;;0.85;0.63;;;;;;;;;;5069128;28;20031;-52
2021/10/12 09:12:49;;;;;;;1.48;0.70;;;;;;;;;;5069082;28;20024;-52
2021/10/12 09:15:16;;;;;;;1.55;0.55;;;;;;;;;;5070909;28;20085;-56
2021/10/12 09:17:42;;;;;;;5.78;0.60;;;;;;;;;;5064800;28;20036;-51
2021/10/12 09:20:11;;;;;;;1.15;0.60;;;;;;;;;;5069124;28;20775;-51
2021/10/12 09:22:43;;;;;;;0.98;0.40;;;;;;;;;;5073132;28;20465;-55
2021/10/12 09:25:13;;;;;;;4.60;0.88;;;;;;;;;;5074377;28;20419;-52
2021/10/12 09:27:47;;;;;;;1.92;0.82;;;;;;;;;;5074469;28;20025;-54
2021/10/12 09:30:13;;;;;;;1.63;0.70;;;;;;;;;;5073015;28;20017;-53
2021/10/12 09:32:39;;;;;;;0.80;0.35;;;;;;;;;;5069223;28;20060;-51
2021/10/12 09:35:06;;;;;;;1.67;0.60;;;;;;;;;;5072708;28;20024;-53
2021/10/12 09:37:32;;;;;;;1.90;0.65;;;;;;;;;;5072650;28;20094;-52
2021/10/12 09:39:57;;;;;;;1.70;0.40;;;;;;;;;;5077955;28;20016;-53
2021/10/12 09:42:24;;;;;;;0.85;0.40;;;;;;;;;;5068573;28;20044;-52
2021/10/12 09:44:57;;;;;;;0.88;0.40;;;;;;;;;;5071493;28;20522;-51
2021/10/12 09:47:23;;;;;;;0.90;0.40;;;;;;;;;;5068480;28;20024;-55
2021/10/12 09:49:50;;;;;;;0.82;0.30;;;;;;;;;;5066947;28;20479;-52
2021/10/12 09:52:23;;;;;;;0.35;0.30;;;;;;;;;;5063969;28;20020;-53
2021/10/12 09:54:52;;;;;;;1.80;0.50;;;;;;;;;;5070542;28;20028;-51
2021/10/12 09:57:19;;;;;;;0.88;0.52;;;;;;;;;;5077774;28;20056;-51
2021/10/12 09:59:45;;;;;;;3.80;0.50;;;;;;;;;;5064873;28;20017;-51
2021/10/12 10:02:18;;;;;;;0.90;0.50;;;;;;;;;;5062737;28;20155;-51
2021/10/12 10:04:44;;;;;;;3.27;0.70;;;;;;;;;;5068151;28;20040;-54
2021/10/12 10:07:11;;;;;;;1.23;0.40;;;;;;;;;;5056814;28;20369;-51
2021/10/12 10:09:39;;;;;;;1.33;0.50;;;;;;;;;;5069171;28;20052;-54
2021/10/12 10:12:08;;;;;;;1.75;0.47;;;;;;;;;;5073066;28;20119;-52
2021/10/12 10:14:35;;;;;;;0.50;0.47;;;;;;;;;;5080344;28;20028;-54
2021/10/12 10:17:01;;;;;;;1.73;0.60;;;;;;;;;;5079720;28;20036;-51
2021/10/12 10:19:28;;;;;;;1.33;0.52;;;;;;;;;;5078945;28;20044;-54
2021/10/12 10:21:54;;;;;;;0.85;0.50;;;;;;;;;;5076749;28;20048;-52
2021/10/12 10:24:38;;;;;;;1.13;0.43;;;;;;;;;;5082946;28;20066;-52
2021/10/12 10:27:05;;;;;;;0.98;0.43;;;;;;;;;;5071782;28;20016;-52
2021/10/12 10:29:36;;;;;;;2.78;0.38;;;;;;;;;;5070121;28;20070;-52
2021/10/12 10:32:13;;;;;;;1.27;0.20;;;;;;;;;;5063555;28;20036;-51
2021/10/12 10:34:43;;;;;;;0.20;0.20;;;;;;;;;;5069514;28;20078;-50
2021/10/12 10:37:18;;;;;;;2.70;0.47;;;;;;;;;;5073173;28;20376;-52
2021/10/12 10:40:08;;;;;;;0.63;0.20;;;;;;;;;;5069338;28;20032;-55
2021/10/12 10:42:34;;;;;;;1.30;0.20;;;;;;;;;;5062128;28;20036;-51
2021/10/12 10:45:00;;;;;;;0.85;0.20;;;;;;;;;;5070045;28;20031;-53
2021/10/12 10:47:41;;;;;;;3.67;0.30;;;;;;;;;;5067129;28;20028;-51
2021/10/12 10:50:10;;;;;;;0.30;0.20;;;;;;;;;;5060805;28;20538;-51
2021/10/12 10:52:50;;;;;;;1.20;0.30;;;;;;;;;;5062943;28;20393;-53
2021/10/12 10:55:20;;;;;;;0.52;0.30;;;;;;;;;;5065547;28;20032;-53
2021/10/12 10:58:01;;;;;;;0.77;0.22;;;;;;;;;;5071138;28;20445;-52
2021/10/12 11:00:40;;;;;;;0.32;0.20;;;;;;;;;;5070033;28;20665;-56
2021/10/12 11:03:07;;;;;;;2.65;0.40;;;;;;;;;;5067085;28;20028;-52
2021/10/12 11:05:32;;;;;;;1.45;0.13;;;;;;;;;;5066407;28;20031;-51
2021/10/12 11:08:08;;;;;;;1.15;0.75;;;;;;;;;;5077965;28;20020;-52
2021/10/12 11:10:35;;;;;;;0.10;0.10;;;;;;;;;;5065201;28;20025;-50
2021/10/12 11:13:01;;;;;;;2.67;0.38;;;;;;;;;;5072198;28;20017;-51
2021/10/12 11:15:26;;;;;;;2.53;0.40;;;;;;;;;;5063004;28;20029;-52
2021/10/12 11:18:09;;;;;;;0.93;0.40;;;;;;;;;;5065964;28;20056;-55
2021/10/12 11:20:39;;;;;;;0.20;0.20;;;;;;;;;;5068202;28;20052;-52
2021/10/12 11:23:05;;;;;;;0.55;0.20;;;;;;;;;;5066895;28;20031;-54
2021/10/12 11:25:31;;;;;;;0.25;0.10;;;;;;;;;;5075527;28;20111;-52
2021/10/12 11:28:05;;;;;;;0.00;0.00;;;;;;;;;;5075299;28;20106;-54
2021/10/12 11:30:35;;;;;;;0.10;0.08;;;;;;;;;;5067760;28;20100;-52
2021/10/12 11:33:04;;;;;;;0.50;0.10;;;;;;;;;;5071889;28;20017;-52
2021/10/12 11:35:34;;;;;;;0.47;0.10;;;;;;;;;;5071927;28;20024;-51
2021/10/12 11:38:00;;;;;;;0.70;0.20;;;;;;;;;;5071105;28;20039;-51
2021/10/12 11:40:27;;;;;;;0.13;0.00;;;;;;;;;;5070196;28;20104;-52
2021/10/12 11:42:53;;;;;;;0.32;0.10;;;;;;;;;;5067659;28;20024;-51
2021/10/12 11:45:19;;;;;;;1.35;0.10;;;;;;;;;;5069369;28;20477;-51
2021/10/12 11:47:45;;;;;;;0.80;0.10;;;;;;;;;;5067357;28;20405;-51
2021/10/12 11:50:12;;;;;;;0.10;0.03;;;;;;;;;;5066985;28;20515;-50
2021/10/12 11:52:38;;;;;;;0.77;0.28;;;;;;;;;;5066166;28;20063;-51
2021/10/12 11:55:08;;;;;;;0.80;0.30;;;;;;;;;;5065901;28;20032;-51
2021/10/12 11:57:35;;;;;;;0.45;0.30;;;;;;;;;;5070424;28;20086;-51
2021/10/12 12:00:01;;;;;;;0.90;0.30;;;;;;;;;;5071562;28;20166;-52
2021/10/12 12:02:30;;;;;;;0.70;0.20;;;;;;;;;;5055818;28;20731;-55
2021/10/12 12:04:59;;;;;;;1.15;0.30;;;;;;;;;;5072621;28;20048;-51
2021/10/12 12:07:29;;;;;;;0.35;0.10;;;;;;;;;;5068135;28;20108;-50
2021/10/12 12:09:55;;;;;;;1.00;0.10;;;;;;;;;;5066587;28;20380;-50
2021/10/12 12:12:21;;;;;;;0.88;0.22;;;;;;;;;;5066493;28;20043;-51
2021/10/12 12:14:51;;;;;;;1.25;0.20;;;;;;;;;;5071105;28;20671;-51
2021/10/12 12:17:20;;;;;;;0.25;0.22;;;;;;;;;;5068014;28;20036;-52
2021/10/12 12:19:54;;;;;;;0.55;0.17;;;;;;;;;;5072981;28;20044;-50
2021/10/12 12:22:30;;;;;;;0.10;0.00;;;;;;;;;;5067122;28;20431;-51
2021/10/12 12:25:03;;;;;;;0.30;0.20;;;;;;;;;;5058423;28;20037;-51
2021/10/12 12:27:34;;;;;;;1.35;0.10;;;;;;;;;;5069005;28;20492;-51
2021/10/12 12:30:03;;;;;;;0.63;0.30;;;;;;;;;;5075413;28;20115;-50
2021/10/12 12:32:29;;;;;;;0.80;0.30;;;;;;;;;;5073220;28;20032;-53
2021/10/12 12:35:02;;;;;;;0.60;0.20;;;;;;;;;;5068873;28;20088;-52
2021/10/12 12:37:28;;;;;;;;;;;;;;;;;;5073558;28;20086;-52
2021/10/12 12:39:54;;;;;;;1.73;0.38;;;;;;;;;;5063283;28;19947;-54
2021/10/12 12:42:32;;;;;;;1.13;0.10;;;;;;;;;;5065926;28;20025;-52
2021/10/12 12:45:15;;;;;;;2.08;0.22;;;;;;;;;;5074394;28;20083;-50
2021/10/12 12:47:51;;;;;;;2.30;0.13;;;;;;;;;;5067609;28;20028;-52
2021/10/12 12:50:22;;;;;;;2.35;0.60;;;;;;;;;;5072654;28;20044;-51
2021/10/12 12:52:48;;;;;;;0.60;0.10;;;;;;;;;;5066737;28;20105;-50
2021/10/12 12:55:30;;;;;;;1.90;0.10;;;;;;;;;;5074528;28;20024;-54
2021/10/12 12:57:56;;;;;;;3.83;0.22;;;;;;;;;;5060745;28;20028;-52
2021/10/12 13:00:22;;;;;;;0.20;0.00;;;;;;;;;;5072235;28;20107;-52
2021/10/12 13:02:55;;;;;;;0.10;0.10;;;;;;;;;;5071335;28;20100;-53
2021/10/12 13:05:22;;;;;;;;;;;;;;;;;;5074971;28;20055;-50
2021/10/12 13:07:48;;;;;;;0.43;0.10;;;;;;;;;;5071516;28;19920;-54
2021/10/12 13:10:14;;;;;;;0.60;0.10;;;;;;;;;;5074030;28;20017;-51
2021/10/12 13:12:42;;;;;;;0.40;0.30;;;;;;;;;;5073916;28;20039;-50
2021/10/12 13:15:08;;;;;;;0.55;0.25;;;;;;;;;;5074185;28;20078;-50
2021/10/12 13:17:34;;;;;;;1.13;0.13;;;;;;;;;;5073949;28;20512;-50
2021/10/12 13:20:00;;;;;;;0.93;0.10;;;;;;;;;;5076338;28;20048;-53
2021/10/12 13:22:26;;;;;;;2.05;0.20;;;;;;;;;;5071640;28;20517;-50
2021/10/12 13:24:52;;;;;;;0.57;0.30;;;;;;;;;;5071715;28;20025;-50
2021/10/12 13:27:18;;;;;;;0.90;0.30;;;;;;;;;;5072246;28;20028;-50
2021/10/12 13:29:46;;;;;;;3.13;0.20;;;;;;;;;;5073897;28;20025;-52
2021/10/12 13:32:12;;;;;;;0.38;0.15;;;;;;;;;;5072951;28;20033;-51
2021/10/12 13:34:38;;;;;;;1.02;0.10;;;;;;;;;;5071867;28;20033;-52
2021/10/12 13:37:04;;;;;;;0.95;0.00;;;;;;;;;;5073926;28;20028;-51
2021/10/12 13:39:30;;;;;;;0.10;0.05;;;;;;;;;;5073092;28;20190;-49
2021/10/12 13:41:57;;;;;;;0.13;0.00;;;;;;;;;;5072547;28;20485;-49
2021/10/12 13:44:23;;;;;;;0.60;0.25;;;;;;;;;;5068276;28;20037;-48
2021/10/12 13:46:50;;;;;;;0.10;0.00;;;;;;;;;;5072423;28;20032;-53
2021/10/12 13:49:16;;;;;;;0.40;0.20;;;;;;;;;;5065942;28;20028;-48
2021/10/12 13:51:42;;;;;;;0.10;0.10;;;;;;;;;;5068617;28;20059;-49
2021/10/12 13:54:08;;;;;;;0.10;0.10;;;;;;;;;;5070020;28;20448;-49
2021/10/12 13:56:34;;;;;;;0.88;0.30;;;;;;;;;;5073515;28;20024;-49
2021/10/12 13:59:00;;;;;;;0.10;0.10;;;;;;;;;;5073444;28;20032;-48
2021/10/12 14:01:26;;;;;;;0.65;0.10;;;;;;;;;;5069314;28;20032;-49
2021/10/12 14:03:52;;;;;;;1.33;0.28;;;;;;;;;;5073390;28;20031;-51
2021/10/12 14:06:18;;;;;;;0.82;0.00;;;;;;;;;;5073113;28;20036;-50
2021/10/12 14:08:45;;;;;;;0.70;0.30;;;;;;;;;;5073259;28;20107;-50
2021/10/12 14:11:10;;;;;;;0.80;0.10;;;;;;;;;;5071576;28;20111;-51
2021/10/12 14:13:37;;;;;;;1.08;0.15;;;;;;;;;;5073214;28;20032;-49
2021/10/12 14:16:03;;;;;;;0.68;0.10;;;;;;;;;;5071395;28;20040;-50
2021/10/12 14:18:30;;;;;;;0.88;0.10;;;;;;;;;;5073092;28;20503;-49
2021/10/12 14:20:56;;;;;;;0.20;0.10;;;;;;;;;;5074933;28;20537;-50
2021/10/12 14:23:22;;;;;;;0.22;0.10;;;;;;;;;;5073034;28;20024;-48
2021/10/12 14:25:49;;;;;;;0.50;0.10;;;;;;;;;;5072770;28;20028;-51
2021/10/12 14:28:15;;;;;;;0.22;0.00;;;;;;;;;;5072931;28;20017;-49
2021/10/12 14:30:43;;;;;;;0.35;0.10;;;;;;;;;;5070225;28;20021;-54
2021/10/12 14:33:09;;;;;;;0.40;0.10;;;;;;;;;;5067883;28;20024;-48
2021/10/12 14:35:35;;;;;;;0.57;0.30;;;;;;;;;;5066197;28;20111;-51
2021/10/12 14:38:01;;;;;;;0.22;0.10;;;;;;;;;;5072302;28;20077;-50
2021/10/12 14:40:27;;;;;;;0.10;0.10;;;;;;;;;;5069531;28;20028;-52
2021/10/12 14:42:54;;;;;;;0.90;0.30;;;;;;;;;;5065624;28;20035;-51
2021/10/12 14:45:20;;;;;;;1.00;0.20;;;;;;;;;;5065120;28;20119;-50